Time;durP1;ratioP1;P1;durP2;ratioP2;P2;SDS_P1;SDS_P2;PMS_P1;PMS_P2;Temp;Humidity;BMP_temperature;BMP_pressure;BME280_temperature;BME280_humidity;BME280_pressure;Samples;Min_cycle;Max_cycle;Signal;HPM_P1;HPM_P2
2022/08/12 00:45:12;;;;;;;3.65;2.40;;;22.10;99.90;;;;;;5036554;28;20226;-75
2022/08/12 00:47:38;;;;;;;6.55;2.78;;;22.10;99.90;;;;;;5036295;28;20200;-74
2022/08/12 00:50:05;;;;;;;5.78;2.53;;;22.20;99.90;;;;;;5035920;28;20200;-75
2022/08/12 00:52:33;;;;;;;3.22;2.30;;;22.20;99.90;;;;;;5031367;28;20189;-75
2022/08/12 00:55:00;;;;;;;3.38;2.60;;;22.20;99.90;;;;;;5034474;28;20200;-75
2022/08/12 00:57:34;;;;;;;4.63;2.72;;;22.40;99.90;;;;;;5035230;28;20633;-74
2022/08/12 01:00:01;;;;;;;4.35;2.67;;;22.30;99.90;;;;;;5024735;28;20222;-74
2022/08/12 01:02:27;;;;;;;3.78;2.50;;;22.30;99.90;;;;;;5023704;28;20303;-74
2022/08/12 01:13:21;;;;;;;3.60;2.78;;;22.20;99.90;;;;;;5025577;28;20224;-76
2022/08/12 01:16:00;;;;;;;5.30;3.45;;;22.20;99.90;;;;;;5026087;28;20208;-75
2022/08/12 01:18:28;;;;;;;6.72;2.85;;;22.00;99.90;;;;;;5020248;28;20197;-75
2022/08/12 01:21:10;;;;;;;5.53;2.92;;;22.00;99.90;;;;;;5033226;28;20244;-75
2022/08/12 01:23:48;;;;;;;5.45;2.40;;;22.00;99.90;;;;;;5024661;28;20307;-75
2022/08/12 01:26:22;;;;;;;5.10;2.55;;;21.90;99.90;;;;;;5021912;28;20244;-74
2022/08/12 01:28:51;;;;;;;6.70;2.45;;;21.80;99.90;;;;;;5021831;28;20537;-74
2022/08/12 01:31:18;;;;;;;7.15;3.90;;;21.80;99.90;;;;;;5026911;28;20172;-75
2022/08/12 01:33:59;;;;;;;7.82;4.35;;;21.80;99.90;;;;;;5051319;22;20599;-70
2022/08/12 01:36:27;;;;;;;6.53;3.58;;;21.70;99.90;;;;;;5038822;28;20196;-68
2022/08/12 01:38:58;;;;;;;5.97;3.90;;;21.70;99.90;;;;;;5039620;28;20198;-69
2022/08/12 01:41:34;;;;;;;5.75;3.15;;;21.70;99.90;;;;;;5039971;28;20203;-69
2022/08/12 01:44:01;;;;;;;7.88;4.45;;;21.60;99.90;;;;;;5043320;28;20269;-69
2022/08/12 01:46:52;;;;;;;10.32;5.63;;;21.60;99.90;;;;;;5042378;28;20178;-70
2022/08/12 01:49:39;;;;;;;8.02;3.45;;;21.60;99.90;;;;;;5046602;28;20636;-68
2022/08/12 01:52:06;;;;;;;7.15;2.97;;;21.50;99.90;;;;;;5049988;28;20214;-69
2022/08/12 01:54:37;;;;;;;7.63;5.15;;;21.50;99.90;;;;;;5047766;28;20222;-69
2022/08/12 01:57:37;;;;;;;10.45;4.15;;;21.50;99.90;;;;;;5055876;28;20207;-69
2022/08/12 02:00:11;;;;;;;4.97;3.58;;;21.50;99.90;;;;;;5058801;28;20683;-68
2022/08/12 02:03:16;;;;;;;6.72;2.88;;;21.40;99.90;;;;;;5044210;28;20220;-69
2022/08/12 02:12:07;;;;;;;7.22;4.55;;;21.40;99.90;;;;;;5048356;28;20218;-69
2022/08/12 02:14:50;;;;;;;6.28;3.63;;;21.30;99.90;;;;;;5049853;28;20253;-68
2022/08/12 02:17:52;;;;;;;6.25;3.58;;;21.30;99.90;;;;;;5045265;28;20706;-67
2022/08/12 02:20:25;;;;;;;4.57;2.90;;;21.30;99.90;;;;;;5049699;28;20207;-68
2022/08/12 02:22:52;;;;;;;3.20;2.70;;;21.30;99.90;;;;;;5052124;28;20233;-69
2022/08/12 02:25:36;;;;;;;5.88;3.92;;;21.30;99.90;;;;;;5053200;28;20183;-68
2022/08/12 02:28:03;;;;;;;9.50;3.40;;;21.20;99.90;;;;;;5041517;28;20200;-68
2022/08/12 02:30:32;;;;;;;6.32;4.35;;;21.20;99.90;;;;;;5055095;28;20207;-68
2022/08/12 02:33:00;;;;;;;5.93;3.67;;;21.20;99.90;;;;;;5039257;28;20261;-69
2022/08/12 02:35:31;;;;;;;5.60;2.97;;;21.10;99.90;;;;;;5038804;28;20906;-71
2022/08/12 02:37:59;;;;;;;5.28;3.33;;;21.00;99.90;;;;;;5052479;28;20184;-69
2022/08/12 02:40:27;;;;;;;8.55;3.67;;;21.00;99.90;;;;;;5044201;28;20179;-69
2022/08/12 02:43:22;;;;;;;4.93;3.15;;;21.00;99.90;;;;;;5049048;28;20294;-69
2022/08/12 02:45:59;;;;;;;5.47;3.67;;;21.00;99.90;;;;;;5047126;28;20195;-68
2022/08/12 02:48:33;;;;;;;5.45;3.55;;;21.00;99.90;;;;;;5043121;28;20612;-69
2022/08/12 02:51:05;;;;;;;2.70;2.50;;;21.00;99.90;;;;;;5047838;28;20286;-72
2022/08/12 02:53:33;;;;;;;4.90;3.30;;;21.00;99.90;;;;;;5046665;28;20279;-69
2022/08/12 02:56:03;;;;;;;4.63;3.10;;;21.00;99.90;;;;;;5048527;28;20255;-69
2022/08/12 02:58:33;;;;;;;7.28;3.08;;;20.90;99.90;;;;;;5045085;28;20159;-68
2022/08/12 03:01:00;;;;;;;5.22;2.90;;;21.00;99.90;;;;;;5048469;28;20295;-71
2022/08/12 03:03:30;;;;;;;8.05;2.90;;;21.00;99.90;;;;;;5052121;28;20204;-70
2022/08/12 03:06:11;;;;;;;5.53;3.63;;;21.00;99.90;;;;;;5051823;28;20207;-72
2022/08/12 03:08:42;;;;;;;5.07;2.78;;;21.00;99.90;;;;;;5048584;28;20206;-70
2022/08/12 03:11:20;;;;;;;6.18;3.38;;;21.00;99.90;;;;;;5055257;28;20219;-68
2022/08/12 03:13:51;;;;;;;4.55;3.38;;;20.90;99.90;;;;;;5043791;28;20559;-69
2022/08/12 03:16:18;;;;;;;5.60;3.92;;;21.00;99.90;;;;;;5042299;28;20168;-71
2022/08/12 03:18:44;;;;;;;4.95;3.53;;;20.90;99.90;;;;;;5044673;28;20569;-70
2022/08/12 03:21:12;;;;;;;4.47;3.03;;;20.80;99.90;;;;;;5052640;28;20208;-70
2022/08/12 03:23:40;;;;;;;4.20;2.90;;;20.90;99.90;;;;;;5041621;28;20576;-69
2022/08/12 03:26:07;;;;;;;4.60;2.80;;;20.80;99.90;;;;;;5046541;28;20223;-70
2022/08/12 03:28:50;;;;;;;5.38;2.92;;;20.80;99.90;;;;;;5052382;28;20168;-69
2022/08/12 03:31:28;;;;;;;5.30;3.05;;;20.80;99.90;;;;;;5048971;28;20242;-70
2022/08/12 03:33:59;;;;;;;4.90;3.10;;;20.80;99.90;;;;;;5050487;28;20218;-69
2022/08/12 03:36:26;;;;;;;5.53;3.45;;;20.80;99.90;;;;;;5041639;28;20199;-68
2022/08/12 03:42:00;;;;;;;5.30;3.03;;;20.70;99.90;;;;;;5049719;28;20219;-69
2022/08/12 04:01:21;;;;;;;4.47;2.85;;;20.70;99.90;;;;;;5043722;28;20203;-69
2022/08/12 04:03:51;;;;;;;6.70;3.00;;;20.80;99.90;;;;;;5048691;28;20679;-70
2022/08/12 04:06:28;;;;;;;6.78;2.97;;;21.00;99.90;;;;;;5044107;28;20712;-69
2022/08/12 04:08:56;;;;;;;5.07;3.05;;;20.90;99.90;;;;;;5043341;28;20669;-69
2022/08/12 04:14:12;;;;;;;4.45;3.28;;;20.90;99.90;;;;;;5047070;28;20238;-70
2022/08/12 04:16:38;;;;;;;7.75;3.25;;;20.90;99.90;;;;;;5042295;28;20230;-70
2022/08/12 04:19:05;;;;;;;6.65;3.08;;;21.10;99.90;;;;;;5031344;28;20176;-68
2022/08/12 04:21:32;;;;;;;3.97;2.92;;;21.10;99.90;;;;;;5043237;28;20293;-70
2022/08/12 04:23:58;;;;;;;5.22;2.83;;;21.20;99.90;;;;;;5040540;28;20246;-70
2022/08/12 04:26:24;;;;;;;7.85;3.17;;;21.20;99.90;;;;;;5043078;28;20200;-70
2022/08/12 04:28:50;;;;;;;3.97;2.80;;;21.30;99.90;;;;;;5058739;28;20311;-69
2022/08/12 04:31:16;;;;;;;4.68;2.83;;;21.30;99.90;;;;;;5044020;28;20672;-70
2022/08/12 04:33:42;;;;;;;3.60;2.90;;;21.30;99.90;;;;;;5037799;28;20211;-70
2022/08/12 04:36:09;;;;;;;5.75;3.20;;;21.40;99.90;;;;;;5041410;28;20287;-69
2022/08/12 04:38:35;;;;;;;6.18;3.25;;;21.50;99.90;;;;;;5052981;28;20211;-69
2022/08/12 04:41:03;;;;;;;6.22;3.25;;;21.70;99.90;;;;;;5043031;28;20582;-70
2022/08/12 04:43:28;;;;;;;4.38;2.90;;;23.00;99.90;;;;;;5040120;28;20196;-69
2022/08/12 04:45:55;;;;;;;6.57;3.28;;;25.10;99.90;;;;;;5050168;28;20207;-68
2022/08/12 04:48:21;;;;;;;6.38;3.67;;;26.70;99.90;;;;;;5040410;28;20284;-71
2022/08/12 04:50:46;;;;;;;5.18;2.63;;;27.40;98.60;;;;;;5049759;28;20699;-68
2022/08/12 04:53:12;;;;;;;3.13;2.83;;;28.00;96.80;;;;;;5048174;28;20210;-69
2022/08/12 04:55:40;;;;;;;8.48;3.13;;;28.40;95.90;;;;;;5054322;28;20180;-69
2022/08/12 04:58:09;;;;;;;5.35;2.90;;;27.90;95.70;;;;;;5045405;28;20200;-69
2022/08/12 05:00:36;;;;;;;7.65;3.08;;;28.50;95.00;;;;;;5049824;28;20290;-68
2022/08/12 05:03:04;;;;;;;4.82;3.30;;;29.40;94.20;;;;;;5050168;28;20226;-70
2022/08/12 05:05:31;;;;;;;5.45;3.00;;;29.90;92.60;;;;;;5050983;28;20249;-69
2022/08/12 05:07:57;;;;;;;6.40;3.40;;;29.00;92.20;;;;;;5049491;28;20194;-69
2022/08/12 05:10:23;;;;;;;3.60;3.10;;;29.50;92.20;;;;;;5049414;28;20655;-70
2022/08/12 05:12:53;;;;;;;7.30;3.15;;;29.40;91.90;;;;;;5051635;28;20290;-70
2022/08/12 05:15:19;;;;;;;6.32;2.72;;;29.50;91.50;;;;;;5055518;28;20712;-70
2022/08/12 05:17:44;;;;;;;8.45;3.00;;;29.10;92.00;;;;;;5049468;28;20215;-72
2022/08/12 05:20:14;;;;;;;6.38;3.28;;;29.40;91.90;;;;;;5054968;28;20214;-68
2022/08/12 05:22:42;;;;;;;5.85;3.15;;;29.60;91.20;;;;;;5054463;28;20207;-69
2022/08/12 05:25:08;;;;;;;7.10;2.88;;;29.50;91.40;;;;;;5046946;28;20179;-69
2022/08/12 05:27:33;;;;;;;6.30;2.92;;;29.80;91.10;;;;;;5051202;28;20199;-69
2022/08/12 05:29:59;;;;;;;6.43;3.40;;;30.20;90.50;;;;;;5052478;28;20683;-69
2022/08/12 05:32:26;;;;;;;4.90;3.25;;;30.20;90.50;;;;;;5054798;28;20230;-70
2022/08/12 05:34:52;;;;;;;5.10;3.33;;;29.60;90.00;;;;;;5049066;28;20207;-72
2022/08/12 05:37:20;;;;;;;6.93;2.85;;;30.90;89.10;;;;;;5047111;28;20698;-70
2022/08/12 05:39:46;;;;;;;7.90;3.10;;;30.50;89.10;;;;;;5052325;28;20222;-72
2022/08/12 05:42:11;;;;;;;7.15;3.20;;;30.50;89.40;;;;;;5049471;28;20230;-69
2022/08/12 05:44:37;;;;;;;3.92;2.95;;;30.40;88.40;;;;;;5051359;28;20346;-70
2022/08/12 05:47:03;;;;;;;9.60;3.85;;;31.40;87.60;;;;;;5052408;28;20242;-73
2022/08/12 05:49:29;;;;;;;9.75;3.85;;;32.20;85.90;;;;;;5056157;28;20254;-71
2022/08/12 05:51:56;;;;;;;9.30;3.63;;;31.60;84.90;;;;;;5051449;28;20346;-73
2022/08/12 05:54:22;;;;;;;9.98;4.57;;;32.10;85.00;;;;;;5046178;28;20207;-70
2022/08/12 05:56:47;;;;;;;8.35;3.67;;;32.50;83.90;;;;;;5058018;28;20560;-71
2022/08/12 05:59:13;;;;;;;8.45;4.32;;;32.30;83.70;;;;;;5052954;28;20218;-71
2022/08/12 06:01:40;;;;;;;7.70;3.80;;;33.10;82.60;;;;;;5048591;28;20179;-69
2022/08/12 06:04:08;;;;;;;4.95;3.10;;;33.10;82.00;;;;;;5045082;28;20190;-68
2022/08/12 06:06:37;;;;;;;9.18;3.47;;;32.90;81.50;;;;;;5056233;28;20199;-69
2022/08/12 06:09:03;;;;;;;7.88;3.75;;;33.50;81.00;;;;;;5048203;28;20287;-70
2022/08/12 06:11:28;;;;;;;9.18;3.70;;;33.80;80.00;;;;;;5047099;28;20250;-69
2022/08/12 06:13:55;;;;;;;8.13;3.47;;;33.50;78.90;;;;;;5052350;28;20198;-71
2022/08/12 06:16:22;;;;;;;6.65;3.28;;;32.70;79.30;;;;;;5057650;28;20635;-71
2022/08/12 06:18:48;;;;;;;5.57;3.03;;;33.10;79.30;;;;;;5052353;28;20230;-70
2022/08/12 06:21:16;;;;;;;7.90;3.03;;;33.30;78.50;;;;;;5052873;28;20222;-69
2022/08/12 06:23:44;;;;;;;6.90;4.13;;;33.20;77.90;;;;;;5056583;28;20203;-68
2022/08/12 06:26:11;;;;;;;8.82;3.17;;;33.10;77.50;;;;;;5053644;28;20287;-70
2022/08/12 06:28:38;;;;;;;5.88;3.50;;;33.30;77.80;;;;;;5052398;28;20627;-72
2022/08/12 06:31:05;;;;;;;5.63;2.58;;;34.00;75.80;;;;;;5060423;28;20218;-69
2022/08/12 06:33:31;;;;;;;6.00;2.95;;;34.00;75.80;;;;;;5057774;28;20211;-69
2022/08/12 06:35:57;;;;;;;3.55;2.38;;;34.80;74.60;;;;;;5054410;28;20600;-69
2022/08/12 06:38:24;;;;;;;6.43;3.40;;;35.30;73.30;;;;;;5053103;28;20233;-69
2022/08/12 06:43:45;;;;;;;4.07;2.55;;;35.50;71.90;;;;;;5055666;28;20250;-69
2022/08/12 06:46:12;;;;;;;3.67;2.17;;;35.20;71.00;;;;;;5049076;28;20218;-69
2022/08/12 06:48:41;;;;;;;5.88;3.13;;;35.50;71.00;;;;;;5060307;28;20690;-69
2022/08/12 06:51:09;;;;;;;5.95;2.75;;;35.20;71.30;;;;;;5035739;28;20234;-68
2022/08/12 06:53:35;;;;;;;6.13;2.50;;;34.20;71.90;;;;;;5052499;28;20917;-68
2022/08/12 06:56:01;;;;;;;3.45;2.05;;;35.00;71.30;;;;;;5047458;28;20302;-72
2022/08/12 06:58:28;;;;;;;4.22;2.17;;;36.40;68.90;;;;;;5058273;28;20254;-68
2022/08/12 07:00:54;;;;;;;9.30;2.08;;;35.40;68.40;;;;;;5054812;28;20191;-70
2022/08/12 07:03:26;;;;;;;3.38;2.05;;;35.30;68.40;;;;;;5045261;28;20211;-70
2022/08/12 07:05:53;;;;;;;4.40;2.58;;;35.20;68.20;;;;;;5060000;28;20248;-72
2022/08/12 07:08:18;;;;;;;5.97;2.30;;;35.70;67.90;;;;;;5055611;28;20214;-69
2022/08/12 07:10:58;;;;;;;6.60;1.90;;;35.50;67.30;;;;;;5054041;28;20254;-69
2022/08/12 07:13:37;;;;;;;3.05;1.90;;;34.90;68.80;;;;;;5050111;28;20187;-70
2022/08/12 07:16:06;;;;;;;3.58;1.80;;;35.70;68.10;;;;;;5046656;28;20230;-69
2022/08/12 07:18:32;;;;;;;6.28;2.53;;;35.60;67.90;;;;;;5053856;28;20289;-69
2022/08/12 07:21:02;;;;;;;3.53;2.40;;;36.40;66.40;;;;;;5052300;28;20206;-69
2022/08/12 07:23:29;;;;;;;3.42;2.00;;;35.80;66.90;;;;;;5051278;28;20298;-69
2022/08/12 07:25:56;;;;;;;7.82;2.05;;;35.40;66.90;;;;;;5055423;28;20175;-72
2022/08/12 07:28:26;;;;;;;3.08;1.85;;;35.50;66.10;;;;;;5047921;28;20694;-69
2022/08/12 07:30:53;;;;;;;2.25;1.45;;;36.10;66.60;;;;;;5052874;28;20221;-70
2022/08/12 07:33:22;;;;;;;4.15;2.05;;;37.30;64.50;;;;;;5055882;28;20211;-69
2022/08/12 07:38:32;;;;;;;5.07;2.10;;;37.70;63.40;;;;;;5020845;28;20219;-74
2022/08/12 07:41:14;;;;;;;2.53;1.40;;;37.20;62.40;;;;;;5017529;28;20208;-74
2022/08/12 07:43:45;;;;;;;4.28;2.00;;;35.80;63.80;;;;;;5008215;28;20643;-73
2022/08/12 07:46:15;;;;;;;5.90;1.85;;;35.80;64.50;;;;;;5013504;28;20170;-72
2022/08/12 07:48:44;;;;;;;2.45;1.60;;;35.20;65.30;;;;;;4994349;28;20215;-73
2022/08/12 07:51:11;;;;;;;2.50;1.45;;;34.70;65.60;;;;;;5009010;28;20280;-73
2022/08/12 07:53:38;;;;;;;5.15;1.98;;;35.40;64.50;;;;;;4994005;28;20278;-71
2022/08/12 07:56:08;;;;;;;4.38;1.77;;;35.20;65.20;;;;;;5018098;28;20211;-73
2022/08/12 07:58:37;;;;;;;3.60;1.77;;;35.00;65.40;;;;;;5012874;28;20624;-73
2022/08/12 08:01:04;;;;;;;4.05;1.60;;;35.20;64.90;;;;;;4987268;28;20236;-74
2022/08/12 08:03:30;;;;;;;3.97;1.70;;;35.10;65.30;;;;;;5011033;28;20212;-74
2022/08/12 08:05:55;;;;;;;4.50;1.95;;;35.30;65.20;;;;;;4998131;28;20253;-75
2022/08/12 08:08:24;;;;;;;2.75;1.88;;;35.40;65.30;;;;;;5007535;28;20209;-73
2022/08/12 08:12:52;;;;;;;4.20;1.80;;;35.50;64.90;;;;;;5009522;28;20168;-72
2022/08/12 08:13:41;;;;;;;3.75;1.85;;;34.30;66.20;;;;;;5010739;28;20173;-74
2022/08/12 08:16:07;;;;;;;3.92;1.88;;;35.10;65.70;;;;;;5015007;28;20701;-71
2022/08/12 08:18:34;;;;;;;5.60;1.73;;;35.20;66.50;;;;;;5011640;28;20212;-68
2022/08/12 08:21:00;;;;;;;2.75;2.33;;;33.90;67.40;;;;;;5012391;28;20203;-72
2022/08/12 08:24:13;;;;;;;6.57;2.55;;;34.80;66.20;;;;;;5015310;28;20223;-71
2022/08/12 08:26:14;;;;;;;2.78;1.55;;;34.70;66.00;;;;;;5018081;28;20208;-69
2022/08/12 08:28:40;;;;;;;1.50;1.00;;;34.50;66.50;;;;;;5017924;28;20188;-70
2022/08/12 08:31:05;;;;;;;3.00;1.60;;;34.00;65.90;;;;;;4995604;28;20243;-71
2022/08/12 08:33:31;;;;;;;2.45;1.48;;;34.50;65.30;;;;;;5012725;28;20200;-74
2022/08/12 08:35:58;;;;;;;4.03;1.30;;;34.20;64.30;;;;;;5004717;28;20204;-70
2022/08/12 08:38:23;;;;;;;2.45;1.08;;;34.30;65.90;;;;;;5016318;28;20212;-70
2022/08/12 08:43:33;;;;;;;3.00;1.38;;;34.20;64.50;;;;;;5009901;28;20208;-68
2022/08/12 08:46:00;;;;;;;2.10;1.55;;;33.50;65.30;;;;;;5017430;28;20279;-70
2022/08/12 08:48:29;;;;;;;4.30;1.08;;;33.90;65.60;;;;;;5012846;28;20286;-70
2022/08/12 08:50:55;;;;;;;2.15;1.55;;;33.50;65.40;;;;;;4996258;28;20201;-68
2022/08/12 08:53:21;;;;;;;1.05;0.98;;;33.60;65.30;;;;;;5007171;28;20201;-70
2022/08/12 08:55:47;;;;;;;1.42;1.00;;;33.50;66.40;;;;;;4999798;28;20172;-70
2022/08/12 08:58:13;;;;;;;2.58;1.48;;;34.10;64.80;;;;;;5012194;28;20207;-71
2022/08/12 09:00:39;;;;;;;1.50;1.05;;;33.60;65.60;;;;;;5010630;28;20205;-72
2022/08/12 09:03:06;;;;;;;3.50;1.15;;;33.30;66.30;;;;;;5008537;28;20204;-68
2022/08/12 09:05:32;;;;;;;2.72;1.05;;;32.90;66.50;;;;;;5014712;28;20367;-69
2022/08/12 09:08:00;;;;;;;1.85;1.20;;;33.10;66.60;;;;;;4996453;28;20271;-70
2022/08/12 09:10:26;;;;;;;6.38;1.15;;;33.70;66.20;;;;;;5006590;28;20173;-70
2022/08/12 09:15:37;;;;;;;3.08;1.65;;;32.40;66.10;;;;;;5013195;28;20216;-72
2022/08/12 09:18:06;;;;;;;1.42;1.10;;;32.20;67.90;;;;;;4993222;28;20216;-73
2022/08/12 09:20:33;;;;;;;3.83;1.48;;;31.70;68.70;;;;;;5015792;28;20797;-71
2022/08/12 09:23:00;;;;;;;5.43;1.40;;;31.30;69.50;;;;;;5015753;28;20228;-71
2022/08/12 09:25:30;;;;;;;3.80;1.25;;;30.70;69.90;;;;;;5007339;28;20188;-70
2022/08/12 09:27:57;;;;;;;2.17;1.38;;;31.10;70.70;;;;;;5010158;28;20235;-71
2022/08/12 09:30:23;;;;;;;7.60;1.40;;;31.90;69.30;;;;;;5011445;28;20201;-72
2022/08/12 09:32:49;;;;;;;3.40;1.15;;;32.10;69.30;;;;;;5010095;28;20200;-72
2022/08/12 09:35:19;;;;;;;3.85;2.63;;;32.00;68.80;;;;;;5009389;28;20215;-70
2022/08/12 09:37:47;;;;;;;5.28;1.63;;;31.00;70.40;;;;;;5013463;28;20212;-73
2022/08/12 09:40:13;;;;;;;2.63;1.52;;;30.80;70.70;;;;;;5012711;28;20601;-69
2022/08/12 09:45:24;;;;;;;2.92;1.30;;;31.20;70.60;;;;;;5003126;28;20339;-73
2022/08/12 09:47:51;;;;;;;4.80;1.73;;;31.00;70.40;;;;;;5017232;28;20246;-70
2022/08/12 09:50:18;;;;;;;15.60;10.88;;;31.30;70.70;;;;;;5008004;28;20197;-71
2022/08/12 09:52:45;;;;;;;6.90;1.70;;;31.90;70.50;;;;;;5009092;28;20191;-73
2022/08/12 09:55:12;;;;;;;1.73;1.35;;;32.20;69.90;;;;;;5013400;28;20181;-69
2022/08/12 09:57:37;;;;;;;4.63;2.25;;;32.00;69.30;;;;;;5012261;28;20213;-69
2022/08/12 10:00:04;;;;;;;7.43;3.35;;;32.40;68.90;;;;;;4987001;28;20244;-68
2022/08/12 10:02:36;;;;;;;5.53;1.73;;;31.80;69.30;;;;;;5004489;28;20269;-73
2022/08/12 10:05:02;;;;;;;2.25;1.67;;;31.50;69.80;;;;;;4997801;28;20763;-72
2022/08/12 10:07:29;;;;;;;2.15;1.52;;;31.60;68.70;;;;;;5011926;28;20197;-73
2022/08/12 10:09:54;;;;;;;2.80;1.60;;;31.30;68.20;;;;;;4985802;28;20208;-73
2022/08/12 10:15:05;;;;;;;7.13;2.17;;;31.00;68.30;;;;;;5011648;28;20228;-73
2022/08/12 10:17:30;;;;;;;3.25;1.88;;;30.80;69.70;;;;;;4996172;28;20300;-73
2022/08/12 10:19:56;;;;;;;3.67;1.40;;;31.10;69.70;;;;;;4999062;28;20303;-71
2022/08/12 10:22:22;;;;;;;6.22;1.50;;;30.60;69.90;;;;;;5014202;28;20248;-69
2022/08/12 10:29:35;;;;;;;3.60;1.55;;;30.00;70.30;;;;;;5014258;28;20226;-71
2022/08/12 10:30:19;;;;;;;4.13;1.55;;;30.20;70.90;;;;;;5011008;28;20251;-69
2022/08/12 10:32:56;;;;;;;3.15;1.40;;;31.10;69.30;;;;;;5013329;28;20220;-70
2022/08/12 10:35:21;;;;;;;4.18;1.40;;;30.40;69.80;;;;;;5003615;28;20284;-70
2022/08/12 10:37:47;;;;;;;3.92;1.60;;;30.50;70.80;;;;;;5015760;28;20291;-70
2022/08/12 10:40:13;;;;;;;5.22;2.65;;;30.20;70.00;;;;;;5012492;28;20700;-74
2022/08/12 10:45:23;;;;;;;4.88;1.60;;;30.30;69.80;;;;;;5005760;28;20264;-68
2022/08/12 10:47:51;;;;;;;4.00;1.48;;;30.20;70.10;;;;;;5015900;28;20677;-73
2022/08/12 10:50:20;;;;;;;5.72;2.10;;;30.30;70.20;;;;;;5003768;28;20584;-70
2022/08/12 10:52:48;;;;;;;3.55;1.70;;;30.30;71.00;;;;;;5010551;28;20173;-71
2022/08/12 10:55:14;;;;;;;2.33;1.20;;;30.80;70.10;;;;;;5012829;28;20173;-73
2022/08/12 10:57:40;;;;;;;4.65;1.25;;;30.50;70.20;;;;;;5002654;28;20306;-72
2022/08/12 11:00:06;;;;;;;2.55;1.63;;;30.80;69.60;;;;;;4995668;28;20221;-72
2022/08/12 11:02:32;;;;;;;4.63;1.95;;;30.50;69.40;;;;;;4997569;28;20624;-74
2022/08/12 11:04:58;;;;;;;3.85;1.88;;;30.00;70.00;;;;;;5020167;28;20235;-70
2022/08/12 11:07:25;;;;;;;2.83;1.70;;;30.10;70.80;;;;;;5011503;28;20765;-71
2022/08/12 11:09:52;;;;;;;2.33;1.70;;;30.40;70.00;;;;;;4996827;28;20204;-69
2022/08/12 11:12:18;;;;;;;2.38;1.60;;;30.10;70.50;;;;;;5015786;28;20205;-69
2022/08/12 11:14:43;;;;;;;5.90;1.50;;;30.30;71.50;;;;;;5016876;28;20232;-69
2022/08/12 11:17:13;;;;;;;3.97;1.33;;;30.50;69.80;;;;;;5010566;28;20307;-71
2022/08/12 11:19:42;;;;;;;3.08;1.30;;;30.60;69.70;;;;;;5016180;28;20664;-71
2022/08/12 11:22:09;;;;;;;2.78;1.30;;;30.80;70.00;;;;;;5020538;28;20586;-71
2022/08/12 11:24:35;;;;;;;1.63;1.27;;;30.80;69.90;;;;;;5014942;28;20693;-71
2022/08/12 11:27:05;;;;;;;4.03;1.33;;;30.40;70.20;;;;;;5005902;28;20212;-72
2022/08/12 11:29:31;;;;;;;3.13;1.17;;;30.10;70.30;;;;;;5017484;28;20205;-72
2022/08/12 11:31:56;;;;;;;3.17;1.42;;;30.10;71.10;;;;;;5015066;28;20219;-72
2022/08/12 11:34:22;;;;;;;3.42;1.60;;;29.80;71.00;;;;;;5007464;28;20588;-72
2022/08/12 11:37:06;;;;;;;2.40;1.50;;;29.80;71.30;;;;;;5009288;28;20223;-72
2022/08/12 11:39:32;;;;;;;2.30;1.55;;;30.00;71.10;;;;;;5018027;28;20225;-71
2022/08/12 11:41:58;;;;;;;3.03;1.48;;;30.00;71.00;;;;;;4998567;28;20207;-71
2022/08/12 11:44:24;;;;;;;7.15;1.48;;;30.40;70.50;;;;;;5005205;28;20236;-72
2022/08/12 11:46:53;;;;;;;3.08;1.35;;;30.40;70.40;;;;;;5014262;28;20227;-72
2022/08/12 11:49:22;;;;;;;1.77;1.27;;;30.30;70.90;;;;;;5012314;28;20167;-72
2022/08/12 11:51:48;;;;;;;3.45;1.33;;;30.30;70.80;;;;;;5010247;28;20201;-72
2022/08/12 11:54:13;;;;;;;3.55;1.60;;;30.00;71.10;;;;;;5015763;28;20205;-72
2022/08/12 11:56:39;;;;;;;1.73;1.50;;;30.00;71.00;;;;;;5018419;28;20213;-73
2022/08/12 11:59:05;;;;;;;4.03;1.75;;;30.00;71.40;;;;;;5010703;28;20196;-72
2022/08/12 12:01:31;;;;;;;4.30;1.58;;;29.70;72.00;;;;;;4994672;28;20509;-73
2022/08/12 12:03:56;;;;;;;5.63;1.40;;;29.60;72.40;;;;;;5014375;28;20246;-72
2022/08/12 12:06:22;;;;;;;3.30;1.55;;;29.60;72.50;;;;;;5012269;28;20201;-72
2022/08/12 12:08:47;;;;;;;2.15;1.30;;;30.10;72.40;;;;;;5009980;28;20219;-73
2022/08/12 12:11:14;;;;;;;4.47;1.40;;;30.50;72.10;;;;;;5007832;28;20241;-72
2022/08/12 12:13:40;;;;;;;2.30;1.60;;;30.60;71.10;;;;;;4992833;28;20177;-72
2022/08/12 12:16:06;;;;;;;4.25;1.80;;;30.40;70.70;;;;;;5011435;28;20177;-72
2022/08/12 12:18:32;;;;;;;2.80;1.35;;;30.20;71.60;;;;;;5005123;28;20201;-72
2022/08/12 12:21:00;;;;;;;2.15;1.55;;;30.30;70.80;;;;;;5014024;28;20207;-72
2022/08/12 12:23:26;;;;;;;2.40;1.35;;;30.20;71.60;;;;;;5014008;28;20222;-71
2022/08/12 12:25:51;;;;;;;2.65;1.63;;;30.30;71.80;;;;;;5010179;28;20199;-72
2022/08/12 12:28:17;;;;;;;6.53;1.52;;;30.10;71.60;;;;;;4973189;28;20206;-71
2022/08/12 12:30:43;;;;;;;3.75;1.50;;;30.00;71.60;;;;;;5012819;28;20206;-70
2022/08/12 12:33:10;;;;;;;3.00;1.48;;;30.20;71.80;;;;;;5012181;28;20211;-71
2022/08/12 12:35:36;;;;;;;3.63;1.20;;;30.00;72.30;;;;;;5008931;28;20217;-73
2022/08/12 12:38:05;;;;;;;4.25;1.27;;;29.90;71.50;;;;;;5001027;28;20227;-71
2022/08/12 12:40:32;;;;;;;2.75;1.40;;;29.70;71.60;;;;;;4995688;28;20174;-68
2022/08/12 12:42:58;;;;;;;3.00;1.50;;;29.70;71.50;;;;;;5008593;28;20213;-68
2022/08/12 12:45:24;;;;;;;6.35;1.50;;;29.60;72.10;;;;;;5003349;28;20206;-69
2022/08/12 12:48:06;;;;;;;2.25;1.60;;;29.60;72.30;;;;;;5018461;28;20258;-68
2022/08/12 12:50:37;;;;;;;4.07;1.35;;;29.70;71.90;;;;;;5010422;28;20220;-69
2022/08/12 12:53:04;;;;;;;4.78;1.65;;;29.70;72.00;;;;;;5006075;28;20197;-68
2022/08/12 12:55:34;;;;;;;3.55;1.48;;;29.80;72.30;;;;;;5016396;28;20536;-70
2022/08/12 12:58:00;;;;;;;4.40;1.23;;;29.90;71.90;;;;;;5012950;28;20205;-69
2022/08/12 13:00:26;;;;;;;4.95;1.40;;;30.00;72.10;;;;;;5005567;28;20261;-72
2022/08/12 13:02:56;;;;;;;2.25;1.63;;;30.00;71.80;;;;;;5007129;28;20242;-72
2022/08/12 13:05:24;;;;;;;3.83;1.50;;;29.80;72.00;;;;;;5012790;28;20200;-72
2022/08/12 13:07:52;;;;;;;2.10;1.50;;;29.90;72.20;;;;;;5010756;28;20201;-69
2022/08/12 13:10:18;;;;;;;3.42;1.55;;;29.80;72.50;;;;;;5002268;28;20174;-71
2022/08/12 13:12:43;;;;;;;3.30;1.10;;;29.40;72.90;;;;;;5002526;28;20204;-71
2022/08/12 13:15:11;;;;;;;4.63;1.30;;;29.40;73.00;;;;;;5010751;28;20292;-71
2022/08/12 13:17:37;;;;;;;2.08;1.13;;;29.40;73.10;;;;;;5006730;28;20308;-81
2022/08/12 13:20:04;;;;;;;2.75;1.35;;;29.40;72.60;;;;;;4989303;28;20291;-70
2022/08/12 13:22:30;;;;;;;5.18;1.13;;;29.30;73.10;;;;;;5015795;28;20189;-70
2022/08/12 13:24:58;;;;;;;2.28;1.40;;;29.10;73.10;;;;;;5012066;28;20201;-72
2022/08/12 13:27:32;;;;;;;2.83;1.40;;;29.20;72.40;;;;;;5005225;28;20300;-70
2022/08/12 13:29:58;;;;;;;3.85;1.80;;;29.10;72.80;;;;;;5012023;28;20198;-71
2022/08/12 13:32:28;;;;;;;2.38;2.15;;;29.10;73.00;;;;;;5009698;28;20694;-72
2022/08/12 13:34:54;;;;;;;1.60;1.33;;;28.90;73.30;;;;;;5007652;28;20226;-71
2022/08/12 13:37:25;;;;;;;4.20;1.48;;;29.00;73.20;;;;;;5006889;28;20243;-73
2022/08/12 13:39:51;;;;;;;3.15;1.60;;;29.10;73.40;;;;;;5036839;22;20211;-72
2022/08/12 13:42:18;;;;;;;3.15;1.70;;;29.20;73.10;;;;;;5043580;28;20252;-74
2022/08/12 13:44:43;;;;;;;3.92;1.55;;;29.30;73.00;;;;;;5052930;28;20215;-74
2022/08/12 13:47:10;;;;;;;2.53;1.48;;;29.50;72.90;;;;;;5032050;28;20215;-75
2022/08/12 13:49:35;;;;;;;2.72;1.55;;;29.50;73.20;;;;;;5052993;28;20175;-72
2022/08/12 13:52:01;;;;;;;3.08;1.38;;;29.40;73.20;;;;;;5028049;28;20294;-72
2022/08/12 13:54:26;;;;;;;1.60;1.40;;;29.50;73.10;;;;;;5015289;28;20215;-71
2022/08/12 13:56:52;;;;;;;3.00;1.35;;;29.50;73.00;;;;;;5016589;28;20605;-71
2022/08/12 13:59:20;;;;;;;1.90;1.70;;;29.40;73.00;;;;;;5030550;28;20548;-74
2022/08/12 14:01:48;;;;;;;2.90;2.60;;;29.50;73.50;;;;;;5024551;28;20180;-70
2022/08/12 14:04:14;;;;;;;3.53;2.10;;;29.40;73.90;;;;;;5034411;28;20595;-72
2022/08/12 14:06:40;;;;;;;2.58;1.25;;;29.30;74.00;;;;;;5032033;28;20205;-72
2022/08/12 14:09:06;;;;;;;2.45;1.60;;;29.10;73.90;;;;;;5024637;28;20204;-72
2022/08/12 14:11:32;;;;;;;5.00;1.77;;;29.20;74.00;;;;;;5017377;28;20550;-73
2022/08/12 14:13:59;;;;;;;3.47;1.52;;;29.10;74.40;;;;;;5036282;28;20203;-73
2022/08/12 14:16:26;;;;;;;2.65;2.42;;;29.20;74.40;;;;;;5014861;28;20253;-73
2022/08/12 14:18:52;;;;;;;3.38;2.55;;;29.10;74.60;;;;;;5023703;28;20207;-72
2022/08/12 14:21:19;;;;;;;2.45;1.70;;;29.20;74.60;;;;;;5029508;28;20279;-72
2022/08/12 14:23:52;;;;;;;3.05;1.80;;;29.30;74.60;;;;;;5015915;28;20219;-72
2022/08/12 14:26:21;;;;;;;3.95;1.33;;;29.40;74.50;;;;;;5005852;28;20605;-74
2022/08/12 14:28:46;;;;;;;2.85;1.60;;;29.60;74.30;;;;;;5015290;28;20630;-75
2022/08/12 14:31:14;;;;;;;3.50;1.80;;;29.50;73.90;;;;;;5029823;28;20271;-72
2022/08/12 14:33:46;;;;;;;1.58;1.40;;;29.40;74.70;;;;;;5016779;28;20292;-71
2022/08/12 14:36:13;;;;;;;1.42;1.30;;;29.50;74.20;;;;;;5025262;28;20315;-72